ADDS METAR Data INFO
IDs: Format: Raw Decoded Include TAF

Data at: 0358 UTC 19 Jul 2018

KAYS 190335Z AUTO 21004KT 10SM CLR 27/25 A2994 RMK AO2 LTG DSNT N AND E T02650248
KAYS 190315Z AUTO 21004KT 10SM CLR 27/25 A2994 RMK AO2 T02670250
KAYS 190255Z AUTO 22003KT 10SM SCT030 27/25 A2994 RMK AO2 T02700252
KAYS 190235Z AUTO 22003KT 10SM CLR 27/26 A2995 RMK AO2 T02730256
KAYS 190215Z AUTO 00000KT 10SM CLR 27/26 A2994 RMK AO2 LTG DSNT N AND NW T02730256
KAYS 190155Z AUTO 00000KT 10SM CLR 27/26 A2992 RMK AO2 LTG DSNT NE T02720255
KAYS 190135Z AUTO 24003KT 10SM CLR 28/26 A2993 RMK AO2 LTG DSNT N T02750256
KAYS 190115Z AUTO 31004KT 10SM CLR 28/25 A2992 RMK AO2 T02770252
KAYS 190055Z AUTO 25005KT 10SM TS CLR 28/25 A2992 RMK AO2 LTG DSNT N AND NW T02800251
KAYS 190035Z AUTO 23004KT 10SM VCTS CLR 29/25 A2992 RMK AO2 LTG DSNT N AND NW T02850250
KAYS 190015Z AUTO 24004KT 10SM VCTS CLR 29/26 A2992 RMK AO2 LTG DSNT N AND NW T02900255
KAYS 182355Z AUTO 22008KT 10SM CLR 30/26 A2991 RMK AO2 LTG DSNT N AND NE T02950257 10349 20281
KAYS 182335Z AUTO 20007KT 10SM VCTS CLR 30/26 A2989 RMK AO2 LTG DSNT N AND NE T03020260
KAYS 182315Z AUTO 21005KT 10SM TS SCT110 30/27 A2990 RMK AO2 LTG DSNT N AND NE T03040269
KAYS 182255Z AUTO 19004KT 10SM VCTS BKN100 30/27 A2990 RMK AO2 LTG DSNT N AND NE T02990267
KAYS 182235Z AUTO 20005KT 10SM -RA SCT049 SCT070 OVC100 29/27 A2991 RMK AO2 T02940274
KAYS 182215Z AUTO 25007KT 7SM RA SCT055 SCT065 BKN100 29/27 A2991 RMK AO2 T02860268
KAYS 182155Z AUTO 22011G20KT 10SM SCT048 BKN070 BKN075 30/26 A2989 RMK AO2 LTG DSNT S T03030255
KAYS 182135Z AUTO 21012KT 10SM BKN048 BKN050 33/23 A2989 RMK AO2 LTG DSNT S AND NW T03290230
KAYS 182115Z AUTO 25005KT 10SM SCT050 SCT060 35/21 A2989 RMK AO2 LTG DSNT NE AND S T03480205
KAYS 182055Z AUTO 27008KT 10SM SCT050 35/20 A2990 RMK AO2 T03490196
KAYS 182035Z AUTO 28008KT 10SM SCT049 34/21 A2990 RMK AO2 LTG DSNT N AND S T03430205
KAYS 182015Z AUTO 23009KT 10SM SCT049 34/20 A2991 RMK AO2 LTG DSNT N AND S T03420204
KAYS 181955Z AUTO 25007KT 10SM SCT049 SCT065 35/19 A2992 RMK AO2 T03450193
KAYS 181935Z AUTO 24010KT 10SM SCT049 34/20 A2992 RMK AO2 LTG DSNT N T03400202
KAYS 181915Z AUTO 25009KT 10SM SCT047 34/21 A2992 RMK AO2 LTG DSNT N AND S T03410205
KAYS 181855Z AUTO 27007KT 240V300 10SM SCT045 34/21 A2993 RMK AO2 LTG DSNT SE T03370208
KAYS 181835Z AUTO 25007KT 210V290 10SM SCT043 33/21 A2994 RMK AO2 LTG DSNT S T03340212
KAYS 181815Z AUTO 25007KT 10SM SCT043 SCT065 SCT075 34/22 A2995 RMK AO2 T03360217
KAYS 181755Z AUTO 24009KT 10SM SCT041 SCT050 SCT060 33/22 A2995 RMK AO2 T03290220 10334 20255
KAYS 181735Z AUTO 23009KT 10SM SCT037 SCT050 BKN060 33/23 A2996 RMK AO2 T03300225
KAYS 181715Z AUTO 25007KT 10SM SCT037 SCT042 SCT049 33/23 A2997 RMK AO2 T03290229
KAYS 181655Z AUTO 26008KT 10SM SCT034 SCT044 BKN050 32/23 A2997 RMK AO2 LTG DSNT S T03230228
KAYS 181635Z AUTO 25008KT 10SM SCT032 SCT040 BKN065 33/24 A2998 RMK AO2 T03260235
KAYS 181615Z AUTO 25008KT 10SM SCT028 SCT035 SCT040 32/24 A2999 RMK AO2 T03170243
KAYS 181555Z AUTO 27007KT 240V300 10SM SCT026 SCT031 SCT060 32/25 A2999 RMK AO2 T03160249
KAYS 181535Z AUTO 25007KT 10SM SCT024 SCT031 SCT060 31/25 A3000 RMK AO2 LTG DSNT E T03140248
KAYS 181515Z AUTO 25008KT 10SM BKN024 31/25 A3000 RMK AO2 T03120251
KAYS 181455Z AUTO 25007KT 10SM SCT024 31/25 A3000 RMK AO2 T03060250
KAYS 181435Z AUTO 25006KT 10SM SCT020 30/25 A3000 RMK AO2 T03000253
KAYS 181415Z AUTO 25007KT 10SM SCT016 30/26 A3000 RMK AO2 T02960257
KAYS 181355Z AUTO 25006KT 10SM SCT014 29/26 A3000 RMK AO2 T02900261
KAYS 181335Z AUTO 27006KT 10SM SCT014 28/26 A3000 RMK AO2 T02840264
KAYS 181315Z AUTO 27008KT 10SM SCT012 28/26 A3000 RMK AO2 T02780261
KAYS 181255Z AUTO 25006KT 10SM SCT010 27/26 A3001 RMK AO2 T02730256
KAYS 181235Z AUTO 26005KT 10SM SCT008 27/25 A3000 RMK AO2 T02670250
KAYS 181215Z AUTO 25007KT 10SM SCT006 26/24 A3000 RMK AO2 LTG DSNT W T02600243
KAYS 181155Z AUTO 25007KT 10SM CLR 25/24 A2999 RMK AO2 T02540237 10254 20241
KAYS 181135Z AUTO 23005KT 10SM SCT060 25/23 A2999 RMK AO2 LTG DSNT E T02490232
KAYS 181115Z AUTO 24004KT 10SM BKN060 25/23 A2999 RMK AO2 T02450228
KAYS 181055Z AUTO 24004KT 10SM BKN050 24/23 A2998 RMK AO2 T02420226
KAYS 181035Z AUTO 23005KT 10SM SCT050 24/23 A2998 RMK AO2 T02410225
KAYS 181015Z AUTO 24003KT 10SM SCT050 24/23 A2997 RMK AO2 T02410225
KAYS 180955Z AUTO 23004KT 10SM CLR 24/23 A2997 RMK AO2 T02420225
KAYS 180935Z AUTO 23005KT 10SM CLR 24/23 A2997 RMK AO2 T02420226
KAYS 180915Z AUTO 23005KT 10SM CLR 24/23 A2997 RMK AO2 T02430226
KAYS 180855Z AUTO 22005KT 10SM CLR 24/23 A2997 RMK AO2 T02430226
KAYS 180835Z AUTO 22004KT 10SM CLR 24/23 A2996 RMK AO2 T02430227
KAYS 180815Z AUTO 21004KT 10SM CLR 24/23 A2997 RMK AO2 T02440227
KAYS 180755Z AUTO 22003KT 10SM CLR 25/23 A2997 RMK AO2 T02450229
KAYS 180735Z AUTO 00000KT 10SM CLR 25/23 A2997 RMK AO2 T02450228
KAYS 180715Z AUTO 24003KT 10SM CLR 25/23 A2997 RMK AO2 T02470230
KAYS 180655Z AUTO 24004KT 10SM CLR 25/23 A2998 RMK AO2 T02490231
KAYS 180635Z AUTO 23003KT 10SM CLR 25/23 A2998 RMK AO2 T02480231
KAYS 180615Z AUTO 24003KT 10SM CLR 25/23 A2999 RMK AO2 T02500233
KAYS 180555Z AUTO 25003KT 10SM CLR 25/23 A2999 RMK AO2 T02500233 10286 20250
KAYS 180535Z AUTO 23004KT 10SM CLR 25/23 A3000 RMK AO2 T02500234
KAYS 180515Z AUTO 23005KT 10SM SCT120 25/24 A3000 RMK AO2 T02520235
KAYS 180455Z AUTO 25004KT 10SM OVC120 25/24 A3001 RMK AO2 T02530236 403370235
KAYS 180435Z AUTO 24004KT 10SM BKN120 25/24 A3001 RMK AO2 T02530236
KAYS 180415Z AUTO 22005KT 10SM CLR 25/24 A3001 RMK AO2 T02530236
KAYS 180355Z AUTO 24004KT 10SM CLR 25/24 A3001 RMK AO2 T02530236
KAYS 180335Z AUTO 24004KT 10SM CLR 25/24 A3001 RMK AO2 T02530236
KAYS 180315Z AUTO 23005KT 10SM CLR 26/24 A3000 RMK AO2 T02550237
KAYS 180255Z AUTO 22005KT 10SM CLR 26/24 A3000 RMK AO2 T02560239
KAYS 180235Z AUTO 24005KT 10SM CLR 26/24 A3000 RMK AO2 T02570237
KAYS 180215Z AUTO 23005KT 10SM CLR 26/23 A3000 RMK AO2 T02610234
KAYS 180155Z AUTO 25004KT 10SM CLR 26/23 A3000 RMK AO2 T02630232
KAYS 180135Z AUTO 24006KT 10SM CLR 27/23 A2999 RMK AO2 T02650231
KAYS 180115Z AUTO 24006KT 10SM CLR 27/24 A2999 RMK AO2 T02670237
KAYS 180055Z AUTO 24006KT 10SM CLR 27/24 A3000 RMK AO2 LTG DSNT N T02740237
KAYS 180035Z AUTO 25007KT 10SM CLR 28/25 A3000 RMK AO2 LTG DSNT N T02800252
KAYS 180015Z AUTO 24010G14KT 10SM CLR 28/26 A2999 RMK AO2 LTG DSNT N T02820261
KAYS 172355Z AUTO 23008G16KT 10SM SCT021 29/26 A2997 RMK AO2 T02860260 10337 20286
KAYS 172335Z AUTO 24005KT 10SM VCTS CLR 29/26 A2997 RMK AO2 LTG DSNT N AND NW T02890259
KAYS 172315Z AUTO 23008KT 10SM VCTS CLR 29/26 A2997 RMK AO2 LTG DSNT N T02920255
KAYS 172255Z AUTO 25010G16KT 10SM CLR 29/25 A2998 RMK AO2 LTG DSNT N T02930247
KAYS 172235Z AUTO 23008KT 10SM CLR 30/25 A2998 RMK AO2 LTG DSNT NE T02950245
KAYS 172215Z AUTO 22014KT 10SM CLR 30/24 A2998 RMK AO2 LTG DSNT N T03000239
KAYS 172155Z AUTO 23014KT 10SM CLR 31/24 A2998 RMK AO2 LTG DSNT N T03050240
KAYS 172135Z AUTO 22010KT 10SM CLR 31/24 A2998 RMK AO2 LTG DSNT NE T03130241
KAYS 172115Z AUTO 23011G14KT 10SM CLR 31/24 A2997 RMK AO2 LTG DSNT NE T03080244
KAYS 172055Z AUTO 22014G19KT 10SM CLR 31/24 A2998 RMK AO2 LTG DSNT NE AND SW T03140238
KAYS 172035Z AUTO 21013G19KT 10SM CLR 31/24 A2998 RMK AO2 LTG DSNT NE AND E T03130237
KAYS 172015Z AUTO 21011KT 10SM CLR 31/23 A2999 RMK AO2 LTG DSNT NE AND E T03080231
KAYS 171955Z AUTO 20015G22KT 10SM SCT044 SCT060 SCT090 30/24 A3000 RMK AO2 LTG DSNT NE THRU SE T03000235
KAYS 171935Z AUTO 20017G23KT 10SM SCT041 SCT050 34/22 A3000 RMK AO2 LTG DSNT NE THRU SE T03350222
KAYS 171915Z AUTO 24007KT 10SM SCT041 SCT050 33/23 A2999 RMK AO2 LTG DSNT NE THRU S T03280227
KAYS 171855Z AUTO 26009KT 10SM SCT041 SCT049 33/20 A2999 RMK AO2 LTG DSNT ALQS T03310203
KAYS 171835Z AUTO 26007KT 10SM SCT045 33/22 A3000 RMK AO2 LTG DSNT ALQS T03290215
KAYS 171815Z AUTO 27009G14KT 10SM SCT036 SCT043 33/21 A3000 RMK AO2 LTG DSNT ALQS T03280213
KAYS 171755Z AUTO 32004KT 10SM SCT036 SCT042 BKN110 33/23 A3000 RMK AO2 LTG DSNT E THRU SW T03260229 10326 20246
KAYS 171735Z AUTO 30007KT 10SM SCT033 BKN040 BKN055 32/24 A3001 RMK AO2 LTG DSNT E THRU S T03190241
KAYS 171715Z AUTO 28006KT 10SM VCTS SCT031 BKN040 BKN055 32/24 A3002 RMK AO2 LTG DSNT E AND S T03220238
KAYS 171655Z AUTO 28005KT 10SM SCT029 SCT038 BKN044 31/25 A3002 RMK AO2 LTG DSNT S T03110246
KAYS 171635Z AUTO 27004KT 10SM SCT029 SCT047 32/25 A3003 RMK AO2 LTG DSNT S T03160246
KAYS 171615Z AUTO 28005KT 10SM SCT027 SCT034 SCT041 31/25 RMK AO2 LTG DSNT S AND SW T03140252